Time;durP1;ratioP1;P1;durP2;ratioP2;P2;SDS_P1;SDS_P2;PMS_P1;PMS_P2;Temp;Humidity;BMP_temperature;BMP_pressure;BME280_temperature;BME280_humidity;BME280_pressure;Samples;Min_cycle;Max_cycle;Signal;HPM_P1;HPM_P2
2022/09/20 00:01:31;;;;;;;4.50;1.13;;;;;;;17.96;100.00;100822.34;7394864;19;20082;-58
2022/09/20 00:04:00;;;;;;;1.45;0.43;;;;;;;18.08;100.00;100818.34;7394402;19;20011;-58
2022/09/20 00:06:30;;;;;;;0.98;0.88;;;;;;;18.03;100.00;100819.84;7394398;19;20025;-59
2022/09/20 00:08:58;;;;;;;2.73;0.83;;;;;;;17.67;100.00;100820.63;7392324;19;20006;-59
2022/09/20 00:11:27;;;;;;;2.08;0.82;;;;;;;17.78;100.00;100817.13;7393057;19;20007;-58
2022/09/20 00:13:56;;;;;;;1.80;0.55;;;;;;;17.87;100.00;100817.69;7397321;19;20018;-58
2022/09/20 00:16:28;;;;;;;5.97;1.27;;;;;;;17.95;100.00;100818.75;7396625;19;20014;-58
2022/09/20 00:18:56;;;;;;;0.50;0.40;;;;;;;18.06;100.00;100816.00;7392510;19;20015;-59
2022/09/20 00:21:26;;;;;;;1.75;1.20;;;;;;;18.04;100.00;100809.34;7397890;19;20062;-59
2022/09/20 00:23:53;;;;;;;0.73;0.50;;;;;;;18.04;100.00;100812.19;7397330;19;20034;-58
2022/09/20 00:26:20;;;;;;;2.08;0.88;;;;;;;18.06;100.00;100813.19;7397287;19;20018;-58
2022/09/20 00:28:46;;;;;;;2.53;0.47;;;;;;;17.98;100.00;100814.16;7398260;19;20014;-58
2022/09/20 00:31:13;;;;;;;2.38;0.55;;;;;;;17.97;100.00;100824.69;7397768;19;20038;-59
2022/09/20 00:36:26;;;;;;;0.75;0.47;;;;;;;18.07;100.00;100817.56;7392290;19;20006;-59
2022/09/20 00:39:01;;;;;;;0.52;0.52;;;;;;;18.13;100.00;100809.91;7391878;19;20018;-58
2022/09/20 00:41:28;;;;;;;5.57;1.02;;;;;;;18.26;100.00;100817.16;7391197;19;20015;-58
2022/09/20 00:43:55;;;;;;;2.28;0.45;;;;;;;18.26;100.00;100811.53;7393554;19;20011;-58
2022/09/20 00:46:21;;;;;;;7.05;0.50;;;;;;;18.15;100.00;100812.22;7395703;19;20039;-58
2022/09/20 00:48:49;;;;;;;1.58;0.88;;;;;;;18.25;100.00;100821.25;7392177;19;20017;-58
2022/09/20 00:51:24;;;;;;;1.15;0.30;;;;;;;18.27;100.00;100818.69;7392463;19;20926;-58
2022/09/20 00:53:51;;;;;;;4.03;0.82;;;;;;;18.39;100.00;100817.44;7392655;19;20021;-58
2022/09/20 00:56:40;;;;;;;2.10;0.63;;;;;;;18.41;100.00;100817.75;7394722;19;20019;-58
2022/09/20 00:59:29;;;;;;;1.08;0.80;;;;;;;18.71;100.00;100827.38;7391331;19;20018;-58
2022/09/20 01:02:01;;;;;;;1.65;0.55;;;;;;;18.58;100.00;100827.06;7392156;19;20007;-58
2022/09/20 01:04:29;;;;;;;1.13;0.63;;;;;;;18.32;100.00;100827.16;7391863;19;20377;-58
2022/09/20 01:07:00;;;;;;;1.65;0.50;;;;;;;18.33;100.00;100819.47;7389521;19;20017;-58
2022/09/20 01:09:27;;;;;;;0.70;0.43;;;;;;;18.26;100.00;100828.44;7392892;19;20014;-58
2022/09/20 01:11:55;;;;;;;1.85;0.85;;;;;;;18.08;100.00;100836.00;7392360;19;20014;-59
2022/09/20 01:14:24;;;;;;;0.45;0.43;;;;;;;18.03;100.00;100828.31;7389941;19;20022;-58
2022/09/20 01:16:55;;;;;;;2.58;0.65;;;;;;;18.18;100.00;100833.75;7387815;19;20018;-58
2022/09/20 01:19:37;;;;;;;1.63;0.73;;;;;;;18.04;100.00;100829.09;7389199;19;20051;-58
2022/09/20 01:22:13;;;;;;;3.13;0.55;;;;;;;18.40;100.00;100827.47;7388535;19;20066;-58
2022/09/20 01:25:10;;;;;;;1.48;0.38;;;;;;;18.38;100.00;100827.19;7392528;19;20011;-58
2022/09/20 01:27:44;;;;;;;1.25;0.32;;;;;;;18.22;100.00;100827.88;7393017;19;20014;-58
2022/09/20 01:30:16;;;;;;;3.05;0.70;;;;;;;18.18;100.00;100833.75;7389704;19;20022;-58
2022/09/20 01:33:06;;;;;;;1.33;0.85;;;;;;;18.20;100.00;100828.38;7391546;19;20038;-58
2022/09/20 01:35:34;;;;;;;1.27;0.60;;;;;;;18.16;100.00;100836.31;7395803;19;20010;-58
2022/09/20 01:38:25;;;;;;;1.38;0.88;;;;;;;18.16;100.00;100836.31;7391126;19;20227;-58
2022/09/20 01:41:24;;;;;;;1.70;1.02;;;;;;;18.16;100.00;100830.69;7391369;19;20023;-59
2022/09/20 01:43:54;;;;;;;0.63;0.38;;;;;;;18.15;100.00;100829.91;7389453;19;20017;-59
2022/09/20 01:46:28;;;;;;;4.85;0.50;;;;;;;18.02;100.00;100832.38;7395084;19;20028;-59
2022/09/20 01:49:20;;;;;;;3.50;0.90;;;;;;;18.37;100.00;100829.25;7391057;19;20348;-58
2022/09/20 01:52:19;;;;;;;1.10;1.00;;;;;;;18.36;100.00;100826.94;7390775;19;20035;-58
2022/09/20 01:55:07;;;;;;;0.55;0.52;;;;;;;18.17;100.00;100830.16;7392445;19;20478;-58
2022/09/20 01:58:07;;;;;;;1.48;0.50;;;;;;;18.19;100.00;100830.44;7391472;19;20465;-58
2022/09/20 02:00:52;;;;;;;0.97;0.67;;;;;;;18.41;100.00;100831.84;7389291;19;20006;-58
2022/09/20 02:03:18;;;;;;;9.93;1.45;;;;;;;18.35;100.00;100828.19;7389265;19;20010;-58
2022/09/20 02:06:15;;;;;;;0.30;0.30;;;;;;;18.36;100.00;100826.94;7393193;19;20817;-58
2022/09/20 02:09:07;;;;;;;2.80;0.50;;;;;;;18.37;100.00;100828.47;7388972;19;20022;-58
2022/09/20 02:11:58;;;;;;;1.75;0.80;;;;;;;18.16;100.00;100830.69;7387875;19;20014;-58
2022/09/20 02:15:08;;;;;;;0.20;0.20;;;;;;;18.31;100.00;100836.13;7389639;19;20338;-58
2022/09/20 02:18:07;;;;;;;2.00;0.50;;;;;;;18.13;100.00;100826.81;7386620;19;20067;-58
2022/09/20 02:20:55;;;;;;;0.52;0.52;;;;;;;18.31;100.00;100824.84;7387394;19;20021;-58
2022/09/20 02:23:33;;;;;;;2.83;0.68;;;;;;;18.32;100.00;100823.59;7389922;19;20843;-58
2022/09/20 02:26:35;;;;;;;5.60;1.08;;;;;;;18.26;100.00;100823.53;7393411;19;20015;-58
2022/09/20 02:29:06;;;;;;;1.95;0.40;;;;;;;18.34;100.00;100819.00;7390104;19;20025;-58
2022/09/20 02:31:49;;;;;;;2.72;0.47;;;;;;;18.36;100.00;100821.28;7390336;19;20062;-58
2022/09/20 02:34:39;;;;;;;6.10;0.65;;;;;;;18.37;100.00;100817.97;7389694;19;20049;-58
2022/09/20 02:37:14;;;;;;;5.45;0.95;;;;;;;18.30;100.00;100817.69;7390517;19;20502;-59
2022/09/20 02:39:57;;;;;;;1.30;0.50;;;;;;;18.47;100.00;100818.56;7386806;19;20045;-58
2022/09/20 02:43:08;;;;;;;1.73;0.65;;;;;;;18.45;100.00;100812.66;7390583;19;20011;-58
2022/09/20 02:45:43;;;;;;;0.47;0.33;;;;;;;18.51;100.00;100816.25;7387156;19;20575;-58
2022/09/20 02:48:09;;;;;;;1.27;0.98;;;;;;;18.71;100.00;100821.72;7390185;19;20044;-58
2022/09/20 02:50:54;;;;;;;0.68;0.55;;;;;;;18.50;100.00;100821.13;7393384;19;20015;-58
2022/09/20 02:54:02;;;;;;;0.35;0.35;;;;;;;18.58;100.00;100815.78;7387808;19;20021;-58
2022/09/20 02:56:50;;;;;;;3.47;1.23;;;;;;;18.46;100.00;100817.78;7389323;19;20011;-59
2022/09/20 02:59:19;;;;;;;8.48;0.90;;;;;;;18.75;100.00;100813.78;7385862;19;20014;-58
2022/09/20 03:01:59;;;;;;;2.08;0.60;;;;;;;18.57;100.00;100811.41;7387808;19;20011;-58
2022/09/20 03:04:56;;;;;;;0.50;0.50;;;;;;;18.53;100.00;100814.47;7388696;19;20352;-58
2022/09/20 03:07:31;;;;;;;2.55;0.32;;;;;;;18.54;100.00;100816.00;7389681;19;20011;-59
2022/09/20 03:10:32;;;;;;;2.97;0.60;;;;;;;18.65;100.00;100820.91;7389384;19;20022;-59
2022/09/20 03:13:17;;;;;;;0.15;0.10;;;;;;;18.57;100.00;100817.81;7386415;19;20504;-58
2022/09/20 03:16:06;;;;;;;1.02;0.50;;;;;;;18.50;100.00;100807.00;7392346;19;20010;-58
2022/09/20 03:18:43;;;;;;;3.03;0.73;;;;;;;14.31;100.00;100821.66;7388537;19;20011;-58
2022/09/20 03:21:21;;;;;;;1.00;0.52;;;;;;;12.99;100.00;100824.84;7388987;19;20049;-58
2022/09/20 03:23:54;;;;;;;0.95;0.50;;;;;;;12.67;100.00;100825.47;7396472;19;20018;-58
2022/09/20 03:26:43;;;;;;;2.00;1.55;;;;;;;12.46;100.00;100823.59;7400749;19;20010;-58
2022/09/20 03:29:30;;;;;;;2.92;0.85;;;;;;;12.52;100.00;100818.94;7395934;19;20033;-58
2022/09/20 03:32:17;;;;;;;2.28;1.08;;;;;;;12.35;100.00;100817.69;7395971;19;20075;-58
2022/09/20 03:34:55;;;;;;;0.52;0.52;;;;;;;12.25;100.00;100821.72;7396320;19;20021;-58
2022/09/20 03:37:43;;;;;;;3.20;0.60;;;;;;;12.23;100.00;100821.41;7396631;19;20066;-59
2022/09/20 03:40:16;;;;;;;2.35;0.47;;;;;;;12.18;100.00;100814.44;7392079;19;20015;-59
2022/09/20 03:42:47;;;;;;;2.03;0.50;;;;;;;12.64;100.00;100818.81;7395824;19;20014;-59
2022/09/20 03:45:22;;;;;;;0.98;0.82;;;;;;;12.60;100.00;100811.81;7397600;19;20035;-59
2022/09/20 03:47:55;;;;;;;1.50;0.50;;;;;;;11.95;100.00;100810.19;7396263;19;20006;-58
2022/09/20 03:50:21;;;;;;;1.55;0.55;;;;;;;12.02;100.00;100812.69;7399025;19;20018;-58
2022/09/20 03:53:05;;;;;;;0.70;0.70;;;;;;;12.05;100.00;100811.78;7395666;19;20018;-58
2022/09/20 03:55:50;;;;;;;0.75;0.60;;;;;;;13.05;100.00;100797.81;7397913;19;20014;-58
2022/09/20 03:58:20;;;;;;;0.35;0.35;;;;;;;16.84;100.00;100774.06;7394321;19;20010;-58
2022/09/20 04:01:07;;;;;;;1.05;0.95;;;;;;;13.75;100.00;100781.69;7393531;19;20463;-58
2022/09/20 04:03:37;;;;;;;3.97;0.90;;;;;;;12.59;100.00;100790.69;7394211;19;20014;-58
2022/09/20 04:06:18;;;;;;;1.80;0.50;;;;;;;12.34;100.00;100796.59;7398202;19;20025;-58
2022/09/20 04:09:12;;;;;;;1.35;0.68;;;;;;;12.17;100.00;100796.13;7395006;19;20456;-58
2022/09/20 04:12:09;;;;;;;3.38;0.95;;;;;;;11.60;100.00;100800.47;7394819;19;20033;-58
2022/09/20 04:15:01;;;;;;;0.38;0.38;;;;;;;11.71;100.00;100797.25;7395799;19;20023;-58
2022/09/20 04:17:57;;;;;;;0.60;0.55;;;;;;;11.87;100.00;100794.97;7391714;19;20015;-58
2022/09/20 04:20:43;;;;;;;1.30;0.40;;;;;;;11.79;100.00;100796.50;7395348;19;20035;-58
2022/09/20 04:23:25;;;;;;;2.85;1.05;;;;;;;11.71;100.00;100791.69;7393451;19;20086;-58
2022/09/20 04:25:51;;;;;;;1.42;0.75;;;;;;;11.67;100.00;100797.41;7397366;19;20014;-58
2022/09/20 04:28:25;;;;;;;4.13;2.33;;;;;;;11.76;100.00;100799.47;7397073;19;20039;-58
2022/09/20 04:30:58;;;;;;;2.83;0.45;;;;;;;11.72;100.00;100798.81;7393690;19;20010;-58
2022/09/20 04:33:32;;;;;;;0.57;0.55;;;;;;;11.71;100.00;100803.63;7392317;19;20403;-58
2022/09/20 04:36:28;;;;;;;2.65;0.68;;;;;;;11.59;100.00;100801.69;7397524;19;20014;-58
2022/09/20 04:39:16;;;;;;;1.05;0.73;;;;;;;11.68;100.00;100806.53;7392096;19;20014;-58
2022/09/20 04:42:01;;;;;;;2.22;0.85;;;;;;;11.80;100.00;100812.00;7393543;19;20468;-58
2022/09/20 04:45:08;;;;;;;0.60;0.60;;;;;;;11.91;100.00;100812.34;7392306;19;20011;-58
2022/09/20 04:48:22;;;;;;;3.80;0.88;;;;;;;11.60;100.00;100816.41;7393481;19;20015;-58
2022/09/20 04:51:23;;;;;;;1.42;0.75;;;;;;;11.57;100.00;100815.31;7392182;19;20017;-58
2022/09/20 04:54:08;;;;;;;2.08;1.17;;;;;;;11.81;100.00;100815.56;7393138;19;20011;-58
2022/09/20 04:56:40;;;;;;;4.18;1.45;;;;;;;11.97;100.00;100816.09;7392188;19;20010;-58
2022/09/20 04:59:07;;;;;;;3.22;0.73;;;;;;;12.02;100.00;100818.28;7391022;19;20070;-58
2022/09/20 05:02:02;;;;;;;1.52;0.68;;;;;;;12.10;100.00;100813.19;7392683;19;20039;-58
2022/09/20 05:05:08;;;;;;;6.82;1.50;;;;;;;12.60;100.00;100820.22;7393180;19;20852;-59
2022/09/20 05:07:47;;;;;;;7.70;1.25;;;;;;;12.65;100.00;100816.78;7391924;19;20025;-59
2022/09/20 05:10:28;;;;;;;1.80;1.05;;;;;;;13.10;100.00;100816.00;7392047;19;20010;-59
2022/09/20 05:13:28;;;;;;;2.58;0.60;;;;;;;13.88;100.00;100808.19;7391926;19;20471;-59
2022/09/20 05:15:55;;;;;;;2.60;0.95;;;;;;;14.55;100.00;100796.41;7396047;19;20044;-59
2022/09/20 05:18:27;;;;;;;2.20;0.90;;;;;;;14.42;100.00;100812.72;7392948;19;20045;-59
2022/09/20 05:21:07;;;;;;;0.63;0.50;;;;;;;15.07;100.00;100806.81;7396378;19;20014;-58
2022/09/20 05:23:39;;;;;;;4.22;0.85;;;;;;;14.02;100.00;100813.09;7392522;19;20021;-58
2022/09/20 05:26:33;;;;;;;1.70;0.98;;;;;;;13.90;100.00;100827.34;7396448;19;20494;-58
2022/09/20 05:29:41;;;;;;;1.08;0.68;;;;;;;13.03;100.00;100828.25;7391792;19;20015;-58
2022/09/20 05:32:13;;;;;;;3.15;1.52;;;;;;;12.82;100.00;100834.81;7392145;19;20028;-59
2022/09/20 05:34:53;;;;;;;0.85;0.75;;;;;;;12.74;100.00;100839.91;7393087;19;20003;-58
2022/09/20 05:37:44;;;;;;;2.50;0.82;;;;;;;13.85;100.00;100830.78;7392047;19;20010;-58
2022/09/20 05:40:17;;;;;;;4.68;1.13;;;;;;;14.25;100.00;100823.53;7390520;19;20041;-58
2022/09/20 05:42:55;;;;;;;4.43;1.45;;;;;;;12.88;100.00;100836.50;7388910;19;20015;-59
2022/09/20 05:45:59;;;;;;;1.55;0.90;;;;;;;12.42;100.00;100837.75;7389659;19;20101;-58
2022/09/20 05:48:32;;;;;;;2.17;0.95;;;;;;;12.32;100.00;100841.00;7389604;19;20094;-58
2022/09/20 05:51:02;;;;;;;2.20;0.70;;;;;;;12.25;100.00;100841.28;7393581;19;20045;-58
2022/09/20 05:53:40;;;;;;;2.43;0.97;;;;;;;12.25;100.00;100842.06;7388552;19;20110;-58
2022/09/20 05:56:12;;;;;;;3.50;1.35;;;;;;;12.37;100.00;100843.16;7391034;19;20093;-58
2022/09/20 05:59:13;;;;;;;7.60;1.38;;;;;;;12.36;100.00;100842.41;7393077;19;20011;-58
2022/09/20 06:01:41;;;;;;;1.50;0.75;;;;;;;12.29;100.00;100853.06;7391349;19;20014;-58
2022/09/20 06:04:16;;;;;;;1.27;1.05;;;;;;;12.16;100.00;100845.63;7391288;19;20024;-59
2022/09/20 06:07:11;;;;;;;5.35;1.27;;;;;;;12.44;100.00;100854.03;7390783;19;20013;-59
2022/09/20 06:09:47;;;;;;;7.85;2.30;;;;;;;12.54;100.00;100861.19;7388560;19;20014;-58
2022/09/20 06:12:13;;;;;;;3.00;1.38;;;;;;;12.61;100.00;100863.66;7390559;19;20011;-59
2022/09/20 06:15:14;;;;;;;2.20;1.20;;;;;;;12.52;100.00;100855.25;7391209;19;20016;-59
2022/09/20 06:17:48;;;;;;;2.38;2.15;;;;;;;12.50;100.00;100857.75;7390624;19;20015;-58
2022/09/20 06:20:20;;;;;;;4.30;1.35;;;;;;;12.22;100.00;100853.38;7391596;19;20043;-58
2022/09/20 06:22:50;;;;;;;2.78;1.15;;;;;;;12.33;100.00;100853.69;7389643;19;20099;-58
2022/09/20 06:25:33;;;;;;;2.80;1.70;;;;;;;12.36;100.00;100850.00;7390798;19;20486;-58
2022/09/20 06:28:06;;;;;;;3.10;1.42;;;;;;;12.31;100.00;100850.59;7392180;19;20039;-58
2022/09/20 06:30:42;;;;;;;5.22;1.77;;;;;;;12.12;100.00;100858.97;7390598;19;20010;-58
2022/09/20 06:33:16;;;;;;;3.30;1.00;;;;;;;12.19;100.00;100855.09;7392192;19;20007;-58
2022/09/20 06:35:42;;;;;;;2.05;1.00;;;;;;;13.45;100.00;100845.88;7391908;19;20006;-58
2022/09/20 06:41:33;;;;;;;5.15;0.93;;;;;;;14.56;100.00;100828.78;7393248;19;20007;-58
2022/09/20 06:44:05;;;;;;;5.60;1.67;;;;;;;13.96;100.00;100842.25;7386922;19;20003;-58
2022/09/20 06:46:33;;;;;;;0.85;0.65;;;;;;;14.49;100.00;100843.16;7388218;19;20806;-58
2022/09/20 06:49:00;;;;;;;4.03;1.90;;;;;;;14.94;100.00;100842.78;7390194;19;20010;-58
2022/09/20 06:51:28;;;;;;;1.40;0.85;;;;;;;15.83;100.00;100841.53;7389475;19;20452;-58
2022/09/20 06:53:56;;;;;;;1.35;0.82;;;;;;;14.36;100.00;100842.63;7389741;19;20010;-59
2022/09/20 06:56:26;;;;;;;7.70;1.85;;;;;;;15.71;100.00;100843.38;7398819;19;20028;-58
2022/09/20 06:58:53;;;;;;;2.40;1.63;;;;;;;15.95;100.00;100851.66;7396253;19;20431;-58
2022/09/20 07:01:20;;;;;;;6.20;1.40;;;;;;;16.03;100.00;100847.19;7398361;19;20026;-58
2022/09/20 07:03:46;;;;;;;2.35;1.17;;;;;;;16.38;100.00;100853.53;7397029;19;20618;-58
2022/09/20 07:06:18;;;;;;;1.40;1.15;;;;;;;16.58;100.00;100859.22;7400851;19;20078;-59
2022/09/20 07:08:45;;;;;;;3.83;1.60;;;;;;;16.86;100.00;100855.94;7400510;19;20455;-58
2022/09/20 07:11:15;;;;;;;3.25;0.47;;;;;;;16.56;100.00;100850.50;7396400;19;20027;-58
2022/09/20 07:13:42;;;;;;;5.93;1.20;;;;;;;16.23;100.00;100850.03;7397468;19;20015;-58
2022/09/20 07:16:12;;;;;;;0.95;0.85;;;;;;;17.06;100.00;100853.09;7400412;19;20562;-58
2022/09/20 07:18:40;;;;;;;5.47;1.30;;;;;;;17.30;100.00;100845.88;7395543;19;20017;-58
2022/09/20 07:21:14;;;;;;;4.57;1.02;;;;;;;17.41;100.00;100851.63;7395737;19;20027;-58
2022/09/20 07:23:40;;;;;;;6.00;1.27;;;;;;;17.64;100.00;100852.63;7396153;19;20647;-58
2022/09/20 07:26:20;;;;;;;3.97;1.40;;;;;;;17.52;100.00;100850.22;7400308;19;20014;-58
2022/09/20 07:28:46;;;;;;;4.70;0.90;;;;;;;17.59;100.00;100844.91;7400808;19;20022;-58
2022/09/20 07:31:12;;;;;;;2.47;0.98;;;;;;;17.94;100.00;100845.41;7396528;19;20010;-58
2022/09/20 07:33:38;;;;;;;2.75;1.02;;;;;;;17.91;100.00;100852.03;7395733;19;20035;-58
2022/09/20 07:36:05;;;;;;;1.08;0.85;;;;;;;18.02;100.00;100849.31;7399108;19;20014;-58
2022/09/20 07:38:31;;;;;;;2.67;0.85;;;;;;;18.09;100.00;100845.25;7394556;19;20045;-58
2022/09/20 07:41:00;;;;;;;2.47;1.00;;;;;;;17.42;100.00;100855.22;7397299;19;20002;-58
2022/09/20 07:43:27;;;;;;;4.03;1.50;;;;;;;15.51;100.00;100862.19;7398533;19;20041;-58
2022/09/20 07:45:55;;;;;;;3.85;0.95;;;;;;;14.84;100.00;100865.78;7396773;19;20010;-58
2022/09/20 07:48:24;;;;;;;4.82;1.42;;;;;;;14.94;100.00;100870.84;7399606;19;20015;-58
2022/09/20 07:50:53;;;;;;;1.23;0.73;;;;;;;16.16;100.00;100855.25;7398807;19;20022;-58
2022/09/20 07:53:19;;;;;;;2.55;0.77;;;;;;;15.03;100.00;100867.94;7394557;19;20011;-58
2022/09/20 07:56:10;;;;;;;2.67;1.15;;;;;;;15.14;100.00;100868.16;7398950;19;20015;-58
2022/09/20 07:58:36;;;;;;;6.60;1.33;;;;;;;15.16;100.00;100871.25;7392597;19;20011;-58
2022/09/20 08:01:09;;;;;;;5.38;1.52;;;;;;;15.20;100.00;100874.63;7394585;19;20021;-58
2022/09/20 08:03:36;;;;;;;2.10;0.85;;;;;;;15.18;100.00;100882.00;7393716;19;20420;-58
2022/09/20 08:06:06;;;;;;;4.22;1.30;;;;;;;15.18;100.00;100879.97;7398305;19;20018;-58
2022/09/20 08:08:37;;;;;;;6.40;1.53;;;;;;;15.50;100.00;100880.31;7391501;19;20010;-59
2022/09/20 08:11:11;;;;;;;2.45;0.95;;;;;;;15.48;100.00;100891.25;7393327;19;20011;-58
2022/09/20 08:13:39;;;;;;;1.60;0.73;;;;;;;15.43;100.00;100889.88;7397186;19;20019;-58
2022/09/20 08:16:09;;;;;;;2.72;1.30;;;;;;;17.67;100.00;100873.41;7395278;19;20011;-59
2022/09/20 08:18:36;;;;;;;3.35;0.85;;;;;;;18.74;100.00;100863.78;7396237;19;20006;-59
2022/09/20 08:21:05;;;;;;;8.90;2.47;;;;;;;19.12;100.00;100870.84;7396849;19;20027;-59
2022/09/20 08:23:39;;;;;;;6.18;1.50;;;;;;;19.29;100.00;100866.00;7398633;19;20029;-58
2022/09/20 08:26:06;;;;;;;8.10;1.55;;;;;;;19.52;100.00;100870.41;7396421;19;20373;-58
2022/09/20 08:28:33;;;;;;;3.55;1.88;;;;;;;19.64;100.00;100866.28;7397281;19;20006;-58
2022/09/20 08:31:21;;;;;;;3.10;0.68;;;;;;;19.90;100.00;100870.91;7394231;19;20007;-58
2022/09/20 08:33:49;;;;;;;4.00;2.03;;;;;;;20.10;100.00;100864.94;7392522;19;20017;-58
2022/09/20 08:36:17;;;;;;;2.95;0.88;;;;;;;20.08;100.00;100867.53;7396251;19;20355;-58
2022/09/20 08:38:44;;;;;;;3.75;0.88;;;;;;;17.72;100.00;100878.28;7392832;19;20463;-58
2022/09/20 08:41:16;;;;;;;5.32;1.30;;;;;;;19.36;100.00;100868.31;7393620;19;20018;-58
2022/09/20 08:44:16;;;;;;;5.15;1.27;;;;;;;19.71;100.00;100864.25;7393544;19;20015;-59
2022/09/20 08:46:47;;;;;;;1.83;0.30;;;;;;;19.79;100.00;100870.91;7391850;19;20015;-59
2022/09/20 08:49:24;;;;;;;5.20;0.95;;;;;;;17.56;100.00;100885.34;7395205;19;20011;-58
2022/09/20 08:51:53;;;;;;;2.05;0.80;;;;;;;17.19;100.00;100878.81;7390712;19;20010;-58
2022/09/20 08:54:22;;;;;;;3.42;0.90;;;;;;;16.77;100.00;100887.03;7393958;19;20733;-58
2022/09/20 08:56:49;;;;;;;6.45;1.02;;;;;;;17.17;100.00;100882.09;7393195;19;20050;-58
2022/09/20 08:59:19;;;;;;;3.78;1.08;;;;;;;16.97;100.00;100884.19;7391839;19;20485;-58
2022/09/20 09:01:47;;;;;;;0.82;0.50;;;;;;;16.95;100.00;100886.75;7390867;19;20015;-59
2022/09/20 09:04:20;;;;;;;3.80;1.48;;;;;;;19.03;100.00;100879.53;7392948;19;20459;-59
2022/09/20 09:06:48;;;;;;;4.13;0.68;;;;;;;19.67;100.00;100879.41;7392797;19;20754;-59
2022/09/20 09:09:18;;;;;;;1.08;0.55;;;;;;;19.27;100.00;100882.69;7391408;19;20010;-59
2022/09/20 09:11:46;;;;;;;2.28;0.90;;;;;;;19.91;100.00;100880.91;7392000;19;20003;-59
2022/09/20 09:17:13;;;;;;;3.40;0.55;;;;;;;19.68;100.00;100880.94;7392457;19;20014;-58
2022/09/20 09:19:48;;;;;;;1.52;0.77;;;;;;;20.05;100.00;100885.53;7392863;19;20041;-59
2022/09/20 09:22:35;;;;;;;2.28;0.77;;;;;;;20.30;100.00;100876.00;7392343;19;20014;-59
2022/09/20 09:25:14;;;;;;;2.60;0.35;;;;;;;20.23;100.00;100882.19;7394505;19;20023;-59
2022/09/20 09:27:52;;;;;;;1.90;0.30;;;;;;;20.42;100.00;100888.84;7395954;19;20011;-59
2022/09/20 09:30:41;;;;;;;3.67;0.73;;;;;;;20.35;100.00;100887.31;7396675;19;20034;-59
2022/09/20 09:33:26;;;;;;;6.07;1.02;;;;;;;20.69;100.00;100893.63;7394447;19;20018;-59
2022/09/20 09:36:07;;;;;;;3.67;1.30;;;;;;;20.58;100.00;100895.72;7395277;19;20018;-59
2022/09/20 09:38:45;;;;;;;5.00;0.93;;;;;;;20.05;100.00;100896.84;7391343;19;20046;-58
2022/09/20 09:41:17;;;;;;;1.88;0.50;;;;;;;20.53;100.00;100900.09;7392558;19;20475;-59
2022/09/20 09:43:58;;;;;;;2.83;1.05;;;;;;;20.47;100.00;100896.53;7396631;19;20021;-58
2022/09/20 09:46:26;;;;;;;2.40;0.73;;;;;;;20.54;100.00;100900.88;7395243;19;20013;-58
2022/09/20 09:49:06;;;;;;;1.30;0.45;;;;;;;20.62;100.00;100899.81;7394730;19;20018;-58
2022/09/20 09:51:33;;;;;;;3.10;0.68;;;;;;;20.64;100.00;100905.72;7393459;19;20052;-58
2022/09/20 09:54:00;;;;;;;1.73;0.75;;;;;;;20.73;100.00;100899.78;7394184;19;20003;-58
2022/09/20 09:56:32;;;;;;;2.67;1.00;;;;;;;21.00;100.00;100896.06;7394339;19;20128;-58
2022/09/20 09:59:18;;;;;;;1.80;0.47;;;;;;;21.21;100.00;100898.53;7393616;19;20009;-59
2022/09/20 10:01:56;;;;;;;3.47;0.50;;;;;;;21.43;100.00;100889.91;7392185;19;20370;-59
2022/09/20 10:04:28;;;;;;;0.38;0.30;;;;;;;21.38;100.00;100887.88;7389918;19;20014;-58
2022/09/20 10:07:13;;;;;;;2.40;0.60;;;;;;;21.64;100.00;100888.19;7390663;19;20025;-58
2022/09/20 10:09:54;;;;;;;1.08;0.32;;;;;;;21.57;100.00;100889.53;7390317;19;20018;-58
2022/09/20 10:12:46;;;;;;;7.30;1.27;;;;;;;21.72;100.00;100897.69;7389935;19;20023;-58
2022/09/20 10:15:13;;;;;;;2.10;0.65;;;;;;;21.67;100.00;100889.97;7389585;19;20113;-58
2022/09/20 10:17:42;;;;;;;1.85;0.40;;;;;;;22.08;100.00;100893.50;7390891;19;20031;-58
2022/09/20 10:20:32;;;;;;;1.33;0.45;;;;;;;22.05;100.00;100888.88;7392142;19;20021;-58
2022/09/20 10:23:31;;;;;;;1.55;0.30;;;;;;;22.02;100.00;100889.97;7389580;19;20014;-58
2022/09/20 10:26:21;;;;;;;0.82;0.30;;;;;;;22.06;100.00;100889.66;7389551;19;20018;-58
2022/09/20 10:28:56;;;;;;;1.85;0.55;;;;;;;22.17;100.00;100889.56;7393954;19;20038;-57
2022/09/20 10:31:45;;;;;;;0.80;0.32;;;;;;;22.04;100.00;100893.03;7387776;19;20030;-58
2022/09/20 10:34:42;;;;;;;0.70;0.30;;;;;;;22.14;100.00;100880.03;7387480;19;20010;-58
2022/09/20 10:37:26;;;;;;;1.48;0.30;;;;;;;22.33;100.00;100897.09;7389368;19;20451;-57
2022/09/20 10:40:17;;;;;;;4.38;0.30;;;;;;;22.54;100.00;100895.34;7387411;19;20358;-57
2022/09/20 10:45:40;;;;;;;0.50;0.30;;;;;;;22.63;100.00;100881.56;7389691;19;20014;-57
2022/09/20 10:48:50;;;;;;;1.15;0.43;;;;;;;22.73;100.00;100889.72;7389353;19;20471;-57
2022/09/20 10:51:16;;;;;;;0.57;0.30;;;;;;;22.58;100.00;100890.91;7389227;19;20020;-57
2022/09/20 10:54:47;;;;;;;1.60;0.55;;;;;;;22.67;100.00;100886.19;7388891;19;20473;-57
2022/09/20 10:57:19;;;;;;;2.03;0.28;;;;;;;22.58;100.00;100890.13;7386418;19;20006;-57
2022/09/20 11:00:00;;;;;;;2.17;0.30;;;;;;;22.57;100.00;100894.25;7388349;19;20011;-57
2022/09/20 11:02:30;;;;;;;5.68;1.33;;;;;;;22.73;100.00;100896.19;7389423;19;20011;-57
2022/09/20 11:05:18;;;;;;;1.20;0.20;;;;;;;22.86;100.00;100896.25;7390620;19;20011;-57
2022/09/20 11:08:01;;;;;;;0.60;0.28;;;;;;;22.82;100.00;100892.19;7389105;19;20019;-57
2022/09/20 11:10:37;;;;;;;1.13;0.43;;;;;;;22.94;100.00;100896.41;7388627;19;20039;-57
2022/09/20 11:13:11;;;;;;;3.22;0.60;;;;;;;23.00;100.00;100891.44;7389463;19;20019;-57
2022/09/20 11:15:50;;;;;;;0.95;0.10;;;;;;;23.19;100.00;100892.97;7390795;19;20066;-57
2022/09/20 11:18:37;;;;;;;2.05;1.17;;;;;;;23.24;100.00;100888.50;7387908;19;20010;-57
2022/09/20 11:21:27;;;;;;;1.60;0.35;;;;;;;23.42;100.00;100882.06;7386092;19;20348;-57
2022/09/20 11:24:02;;;;;;;3.00;0.17;;;;;;;23.45;100.00;100881.00;7386357;19;20024;-57
2022/09/20 11:26:41;;;;;;;1.00;0.40;;;;;;;23.31;100.00;100876.50;7387398;19;20021;-57
2022/09/20 11:29:26;;;;;;;1.02;0.35;;;;;;;23.57;100.00;100882.34;7385595;19;20021;-57
2022/09/20 11:31:59;;;;;;;1.05;0.30;;;;;;;23.74;100.00;100879.97;7387238;19;20039;-58
2022/09/20 11:34:32;;;;;;;3.33;0.63;;;;;;;23.87;100.00;100876.41;7387696;19;20010;-57
2022/09/20 11:37:02;;;;;;;0.60;0.17;;;;;;;24.16;100.00;100880.31;7388656;19;20328;-57
2022/09/20 11:39:45;;;;;;;0.10;0.10;;;;;;;24.38;100.00;100874.22;7387454;19;20006;-57
2022/09/20 11:42:16;;;;;;;1.65;0.30;;;;;;;24.16;100.00;100877.47;7387811;19;20015;-57
2022/09/20 11:44:42;;;;;;;0.70;0.45;;;;;;;24.18;100.00;100874.84;7396945;19;20110;-57
2022/09/20 11:47:24;;;;;;;0.65;0.20;;;;;;;24.10;100.00;100875.47;7396118;19;20006;-57
2022/09/20 11:50:31;;;;;;;2.63;0.40;;;;;;;24.43;100.00;100874.09;7398585;19;20464;-57
2022/09/20 11:53:23;;;;;;;0.57;0.20;;;;;;;24.41;100.00;100879.56;7394197;19;20458;-57
2022/09/20 11:56:13;;;;;;;1.05;0.30;;;;;;;24.12;100.00;100879.88;7399633;19;20011;-57
2022/09/20 11:59:04;;;;;;;0.85;0.30;;;;;;;24.08;100.00;100880.22;7395153;19;20041;-57
2022/09/20 12:01:37;;;;;;;0.85;0.20;;;;;;;24.09;100.00;100873.97;7395757;19;20074;-57
2022/09/20 12:04:19;;;;;;;0.13;0.10;;;;;;;24.30;100.00;100879.78;7394454;19;20015;-57
2022/09/20 12:06:46;;;;;;;0.45;0.10;;;;;;;24.48;100.00;100878.91;7395005;19;20074;-57
2022/09/20 12:09:34;;;;;;;0.98;0.30;;;;;;;24.30;100.00;100874.06;7394236;19;20014;-57
2022/09/20 12:12:31;;;;;;;0.70;0.17;;;;;;;24.06;100.00;100882.84;7394740;19;20802;-57
2022/09/20 12:15:00;;;;;;;1.58;0.32;;;;;;;23.85;100.00;100879.78;7396325;19;20010;-57
2022/09/20 12:17:45;;;;;;;0.55;0.40;;;;;;;23.80;100.00;100880.66;7394784;19;20017;-57
2022/09/20 12:20:41;;;;;;;0.28;0.17;;;;;;;23.75;100.00;100877.91;7394938;19;20019;-57